• Join FlightAware (Why Join?)
  • Login
  • US Flag 
01:14AM EDT


 

Airport Tracker/Info


-or-


 

Live Flight TrackerFlight Track Log ✈ AWE3374 ✈ 29-Apr-2013 ✈ KDCA - KMHT

Flight Track Log - Related Links

Times and Time Zones

All times are in EDT time to prevent confusion due to time zone crossing. See the AWE3374 flight status page for this flight to view local times or setup timezone preferences in your user account.

Time Position Orientation Groundspeed Altitude Reporting Facility
EDT Latitude Longitude Course Direction KTS MPH feet Rate Location/Type
02:57PM 38.7506 -77.0183 83° East 182 209 3,800  Level Washington Center
02:58PM 38.7414 -76.9225 97° East 175 201 7,100 3,240 Climbing Washington Center
02:59PM 38.8067 -76.8625 36° Northeast 177 204 10,400 2,700 Climbing Washington Center
03:00PM 39.1161 -76.3181 61° Northeast  Level FlightAware Approximate
03:00PM 38.8842 -76.8131 26° Northeast 294 338 12,600  Level Washington Center
03:01PM 39.1516 -76.2007 83° East  Level FlightAware Approximate
03:01PM 38.9456 -76.7153 51° Northeast 299 344 15,200  Level Washington Center
03:02PM 39.1650 -76.0672 83° East  Level FlightAware Approximate
03:02PM 38.9717 -76.6142 72° East 348 400 17,000  Level Washington Center
03:03PM 39.0164 -76.4678 68° East 355 409 19,800 2,460 Climbing Washington Center
03:04PM 39.0528 -76.3347 71° East 369 425 22,000 1,620 Climbing Washington Center
03:05PM 39.0953 -76.1986 68° East 387 445 23,000 480 Climbing Washington Center
03:06PM 39.1353 -76.0733 68° East 411 473 23,000 240 Level Washington Center
03:07PM 39.1756 -75.9342 69° East 411 473 23,600 1,080 Climbing Washington Center
03:08PM 39.2444 -75.8114 54° Northeast 411 473 25,200 1,440 Climbing Washington Center
03:09PM 39.3322 -75.7017 44° Northeast 418 481 26,500 1,260 Climbing Washington Center
03:10PM 39.4239 -75.5917 43° Northeast 431 496 27,800 1,260 Climbing Washington Center
03:11PM 39.5197 -75.4758 43° Northeast 451 519 29,100 1,140 Climbing Washington Center
03:12PM 39.6747 -75.2858 43° Northeast 470 541 30,900 1,020 Climbing New York Center
03:13PM 39.7817 -75.1578 43° Northeast 475 547 31,900 1,020 Climbing New York Center
03:14PM 39.8694 -75.0389 46° Northeast 481 554 33,000 540 Climbing New York Center
03:15PM 39.9786 -74.9047 43° Northeast 489 563 33,000  Level New York Center
03:16PM 40.0722 -74.7856 44° Northeast 482 555 33,000  Level New York Center
03:17PM 40.1614 -74.6767 43° Northeast 477 549 33,000 -60 Level New York Center
03:18PM 40.2992 -74.6108 20° North 477 549 32,900  Descending New York Center
03:19PM 40.4253 -74.5714 13° North 460 529 33,000  Climbing New York Center
03:20PM 40.5539 -74.5294 14° North 460 529 33,000  Level New York Center
03:21PM 40.6803 -74.4872 14° North 460 529 33,000  Level New York Center
03:23PM 40.8783 -74.4247 13° North 453 521 33,000  Level Boston Center
03:24PM 40.9789 -74.3894 15° North 459 528 33,000  Level Boston Center
03:25PM 41.1211 -74.3522 11° North 459 528 33,000  Level Boston Center
03:26PM 41.2469 -74.3092 14° North 459 528 33,000  Level Boston Center
03:27PM 41.3686 -74.2656 15° North 459 528 33,000  Level Boston Center
03:28PM 41.4922 -74.2250 14° North 454 522 33,000  Level Boston Center
03:29PM 41.6200 -74.1839 14° North 459 528 33,000  Level Boston Center
03:30PM 41.7456 -74.1431 14° North 459 528 33,000 -240 Level Boston Center
03:31PM 41.8797 -74.0992 14° North 447 514 32,600 -1,200 Descending Boston Center
03:32PM 42.0011 -74.0606 13° North 447 514 30,700 -2,100 Descending Boston Center
03:33PM 42.1164 -74.0214 14° North 441 507 28,500 -2,220 Descending Boston Center
03:34PM 42.2253 -73.9794 16° North 425 489 26,300 -2,160 Descending Boston Center
03:35PM 42.2997 -73.8717 47° Northeast 379 436 24,200 -1,860 Descending Boston Center
03:36PM 42.3431 -73.7294 68° East 379 436 22,600 -1,740 Descending Boston Center
03:37PM 42.3906 -73.5786 67° East 399 459 20,800 -1,800 Descending Boston Center
03:38PM 42.4378 -73.4358 66° East 405 466 19,100 -900 Descending Boston Center
03:39PM 42.4742 -73.3069 69° East 411 473 19,000 -60 Descending Boston Center
03:40PM 42.5253 -73.1528 66° East 406 467 19,000  Level Boston Center
03:41PM 42.5656 -73.0236 67° East 406 467 19,000  Level Boston Center
03:42PM 42.6164 -72.8717 66° East 412 474 19,000 -600 Level Boston Center
03:43PM 42.6583 -72.7308 68° East 402 463 17,900 -1,260 Descending Boston Center
03:44PM 42.6961 -72.6125 66° East 390 449 16,500 -1,620 Descending Boston Center
03:45PM 42.7381 -72.4797 67° East 385 443 14,700 -1,680 Descending Boston Center
03:46PM 42.7775 -72.3467 68° East 380 437 13,200 -1,680 Descending Boston Center
03:47PM 42.8003 -72.2025 78° East 360 414 11,400 -1,500 Descending Boston Center
03:48PM 42.8106 -72.0975 82° East 329 379 10,200 -1,260 Descending Boston Center
03:49PM 42.8183 -71.9758 85° East 291 335 8,900 -1,440 Descending Boston Center
03:50PM 42.8264 -71.8797 83° East 283 326 7,400 -1,860 Descending Boston Center
03:51PM 42.8508 -71.7744 72° East 266 306 5,200 -1,320 Descending Boston Center
03:52PM 42.8983 -71.7089 45° Northeast 258 297 4,800 -900 Descending Boston Center
03:53PM 42.9478 -71.6458 43° Northeast 226 260 3,500 -960 Descending Boston Center
03:54PM 42.9911 -71.5914 43° Northeast 221 254 2,900 -600 Descending Boston Center
03:55PM 43.0156 -71.5200 65° Northeast 195 224 2,400 -720 Descending Boston Center
03:56PM 43.0008 -71.4778 115° Southeast 139 160 1,500 -900 Descending Boston Center
03:57PM 42.9631 -71.4556 157° South 124 143 700 -660 Descending Boston Center
03:58PM 42.9336 -71.4333 151° Southeast 136 157 200 9,120 Descending Boston Center
03:59PM 42.8958 -71.4114 157° South 136 157 19,000 9,360 Climbing Boston Center
04:00PM 42.8667 -71.3947 157° South 136 157 19,000  Level Boston Center
04:01PM 42.8225 -71.3700 158° South 136 157 19,000  Level Boston Center
04:02PM 42.8017 -71.3592 159° South 136 157 19,000  Level Boston Center
04:05PM 42.9167 -71.4333 316° Northwest  Level FlightAware Approximate
04:12PM 42.9328 -71.4358 316° Northwest  Level Estimated
04:13PM 42.9328 -71.4358 316° Northwest  Level Estimated
04:14PM 42.9328 -71.4358 316° Northwest  Level Estimated
04:15PM 42.9328 -71.4358 316° Northwest  Level Estimated